EGNX/EMA METAR and TAF weather

Enter ICAO airport designator
Station Type Date Time Source
EGNX METAR 2021/09/27 07:50 UTC NOAA

EGNX 270750Z 27020KT 5000 -RA SCT006 BKN010 11/10 Q1000 RERA


Station Type Date Time Source
EGNX Decoded METAR 2021/09/27 07:50 UTC NOAA

East Midlands, United Kingdom (EGNX) 52-50N 001-20W
Sep 27, 2021 - 03:50 AM EDT / 2021.09.27 0750 UTC
Wind: from the W (270 degrees) at 23 MPH (20 KT):0
Visibility: 3 mile(s):0
Sky conditions: mostly cloudy
Weather: light rain
Temperature: 51 F (11 C)
Dew Point: 50 F (10 C)
Relative Humidity: 93%
Pressure (altimeter): 29.53 in. Hg (1000 hPa)
ob: EGNX 270750Z 27020KT 5000 -RA SCT006 BKN010 11/10 Q1000 RERA
cycle: 8

Station Type Date Time Source
EGNX TAF 2021/09/27 07:30 UTC NOAA

TAF
AMD EGNX 270726Z 2707/2806 21015G25KT 9999 SCT015
TEMPO 2707/2709 22020G40KT 1400 +RA BKN012 PROB30
TEMPO 2707/2709 BKN008
BECMG 2708/2710 26012KT PROB30
TEMPO 2710/2712 6000 SHRA PROB30
TEMPO 2712/2718 26015G25KT 4000 +SHRA
BECMG 2718/2721 20007KT

Example: see airport list